sensor_id;sensor_type;location;lat;lon;timestamp;pressure;altitude;pressure_sealevel;temperature;humidity
69318;BME280;56457;52.190;4.440;2023-02-18T00:00:30;102316.09;;;9.29;100.00
69318;BME280;56457;52.190;4.440;2023-02-18T00:01:30;102322.28;;;9.32;100.00
69318;BME280;56457;52.190;4.440;2023-02-18T00:02:31;102317.03;;;9.32;100.00
69318;BME280;56457;52.190;4.440;2023-02-18T00:03:31;102317.00;;;9.31;100.00
69318;BME280;56457;52.190;4.440;2023-02-18T00:04:31;102318.72;;;9.30;100.00
69318;BME280;56457;52.190;4.440;2023-02-18T00:05:32;102321.31;;;9.29;100.00
69318;BME280;56457;52.190;4.440;2023-02-18T00:06:33;102322.19;;;9.29;100.00
69318;BME280;56457;52.190;4.440;2023-02-18T00:07:34;102315.22;;;9.30;100.00
69318;BME280;56457;52.190;4.440;2023-02-18T00:08:35;102317.88;;;9.31;100.00
69318;BME280;56457;52.190;4.440;2023-02-18T00:09:37;102323.16;;;9.33;100.00
69318;BME280;56457;52.190;4.440;2023-02-18T00:10:39;102323.22;;;9.36;100.00
69318;BME280;56457;52.190;4.440;2023-02-18T00:11:39;102310.97;;;9.35;100.00
69318;BME280;56457;52.190;4.440;2023-02-18T00:12:40;102312.69;;;9.33;100.00
69318;BME280;56457;52.190;4.440;2023-02-18T00:13:40;102312.72;;;9.36;100.00
69318;BME280;56457;52.190;4.440;2023-02-18T00:14:41;102311.84;;;9.34;100.00
69318;BME280;56457;52.190;4.440;2023-02-18T00:15:41;102308.34;;;9.35;100.00
69318;BME280;56457;52.190;4.440;2023-02-18T00:16:42;102308.34;;;9.33;100.00
69318;BME280;56457;52.190;4.440;2023-02-18T00:17:42;102309.22;;;9.34;100.00
69318;BME280;56457;52.190;4.440;2023-02-18T00:18:43;102312.72;;;9.36;100.00
69318;BME280;56457;52.190;4.440;2023-02-18T00:19:43;102316.19;;;9.33;100.00
69318;BME280;56457;52.190;4.440;2023-02-18T00:20:43;102304.81;;;9.33;100.00
69318;BME280;56457;52.190;4.440;2023-02-18T00:21:44;102304.84;;;9.34;100.00
69318;BME280;56457;52.190;4.440;2023-02-18T00:22:44;102302.25;;;9.36;100.00
69318;BME280;56457;52.190;4.440;2023-02-18T00:23:45;102306.63;;;9.35;100.00
69318;BME280;56457;52.190;4.440;2023-02-18T00:24:45;102300.53;;;9.36;100.00
69318;BME280;56457;52.190;4.440;2023-02-18T00:25:45;102306.63;;;9.37;100.00
69318;BME280;56457;52.190;4.440;2023-02-18T00:26:48;102304.84;;;9.34;100.00
69318;BME280;56457;52.190;4.440;2023-02-18T00:27:49;102296.97;;;9.33;100.00
69318;BME280;56457;52.190;4.440;2023-02-18T00:28:49;102308.34;;;9.33;100.00
69318;BME280;56457;52.190;4.440;2023-02-18T00:29:50;102300.47;;;9.33;100.00
69318;BME280;56457;52.190;4.440;2023-02-18T00:30:51;102313.53;;;9.32;100.00
69318;BME280;56457;52.190;4.440;2023-02-18T00:31:51;102311.00;;;9.36;100.00
69318;BME280;56457;52.190;4.440;2023-02-18T00:32:51;102305.69;;;9.32;100.00
69318;BME280;56457;52.190;4.440;2023-02-18T00:33:52;102307.47;;;9.34;100.00
69318;BME280;56457;52.190;4.440;2023-02-18T00:34:52;102314.47;;;9.35;100.00
69318;BME280;56457;52.190;4.440;2023-02-18T00:35:59;102305.72;;;9.35;100.00
69318;BME280;56457;52.190;4.440;2023-02-18T00:37:00;102308.34;;;9.35;100.00
69318;BME280;56457;52.190;4.440;2023-02-18T00:38:00;102310.09;;;9.34;100.00
69318;BME280;56457;52.190;4.440;2023-02-18T00:39:01;102310.97;;;9.35;100.00
69318;BME280;56457;52.190;4.440;2023-02-18T00:40:03;102309.31;;;9.38;100.00
69318;BME280;56457;52.190;4.440;2023-02-18T00:41:03;102307.59;;;9.40;100.00
69318;BME280;56457;52.190;4.440;2023-02-18T00:42:04;102304.06;;;9.38;100.00
69318;BME280;56457;52.190;4.440;2023-02-18T00:43:04;102306.72;;;9.40;100.00
69318;BME280;56457;52.190;4.440;2023-02-18T00:44:05;102311.13;;;9.42;100.00
69318;BME280;56457;52.190;4.440;2023-02-18T00:45:05;102312.84;;;9.42;100.00
69318;BME280;56457;52.190;4.440;2023-02-18T00:46:06;102306.69;;;9.38;100.00
69318;BME280;56457;52.190;4.440;2023-02-18T00:47:07;102309.34;;;9.40;100.00
69318;BME280;56457;52.190;4.440;2023-02-18T00:48:07;102304.16;;;9.43;100.00
69318;BME280;56457;52.190;4.440;2023-02-18T00:49:07;102303.25;;;9.41;100.00
69318;BME280;56457;52.190;4.440;2023-02-18T00:50:08;102299.66;;;9.37;100.00
69318;BME280;56457;52.190;4.440;2023-02-18T00:51:09;102302.25;;;9.36;100.00
69318;BME280;56457;52.190;4.440;2023-02-18T00:52:09;102303.19;;;9.38;100.00
69318;BME280;56457;52.190;4.440;2023-02-18T00:53:09;102299.63;;;9.36;100.00
69318;BME280;56457;52.190;4.440;2023-02-18T00:54:10;102295.34;;;9.38;100.00
69318;BME280;56457;52.190;4.440;2023-02-18T00:55:10;102296.16;;;9.37;100.00
69318;BME280;56457;52.190;4.440;2023-02-18T00:56:11;102297.97;;;9.38;100.00
69318;BME280;56457;52.190;4.440;2023-02-18T00:57:11;102293.63;;;9.40;100.00
69318;BME280;56457;52.190;4.440;2023-02-18T00:58:11;102291.00;;;9.40;100.00
69318;BME280;56457;52.190;4.440;2023-02-18T00:59:11;102290.97;;;9.38;100.00
69318;BME280;56457;52.190;4.440;2023-02-18T01:00:12;102297.97;;;9.38;100.00
69318;BME280;56457;52.190;4.440;2023-02-18T01:01:12;102293.53;;;9.37;100.00
69318;BME280;56457;52.190;4.440;2023-02-18T01:02:13;102296.16;;;9.37;100.00
69318;BME280;56457;52.190;4.440;2023-02-18T01:03:13;102297.97;;;9.39;100.00
69318;BME280;56457;52.190;4.440;2023-02-18T01:04:14;102290.97;;;9.38;100.00
69318;BME280;56457;52.190;4.440;2023-02-18T01:05:14;102287.50;;;9.39;100.00
69318;BME280;56457;52.190;4.440;2023-02-18T01:06:14;102297.13;;;9.40;100.00
69318;BME280;56457;52.190;4.440;2023-02-18T01:07:15;102286.66;;;9.40;100.00
69318;BME280;56457;52.190;4.440;2023-02-18T01:08:15;102296.28;;;9.43;100.00
69318;BME280;56457;52.190;4.440;2023-02-18T01:09:16;102284.88;;;9.38;100.00
69318;BME280;56457;52.190;4.440;2023-02-18T01:10:16;102287.53;;;9.41;100.00
69318;BME280;56457;52.190;4.440;2023-02-18T01:11:16;102275.22;;;9.37;100.00
69318;BME280;56457;52.190;4.440;2023-02-18T01:12:17;102283.13;;;9.38;100.00
69318;BME280;56457;52.190;4.440;2023-02-18T01:13:17;102277.91;;;9.40;100.00
69318;BME280;56457;52.190;4.440;2023-02-18T01:14:17;102281.38;;;9.39;100.00
69318;BME280;56457;52.190;4.440;2023-02-18T01:15:18;102270.03;;;9.40;100.00
69318;BME280;56457;52.190;4.440;2023-02-18T01:16:18;102275.28;;;9.40;100.00
69318;BME280;56457;52.190;4.440;2023-02-18T01:17:19;102265.66;;;9.39;100.00
69318;BME280;56457;52.190;4.440;2023-02-18T01:18:19;102278.88;;;9.45;100.00
69318;BME280;56457;52.190;4.440;2023-02-18T01:19:20;102271.81;;;9.42;100.00
69318;BME280;56457;52.190;4.440;2023-02-18T01:20:20;102272.72;;;9.43;100.00
69318;BME280;56457;52.190;4.440;2023-02-18T01:21:20;102268.34;;;9.43;100.00
69318;BME280;56457;52.190;4.440;2023-02-18T01:22:21;102258.81;;;9.46;100.00
69318;BME280;56457;52.190;4.440;2023-02-18T01:23:21;102255.31;;;9.45;100.00
69318;BME280;56457;52.190;4.440;2023-02-18T01:24:22;102261.31;;;9.41;100.00
69318;BME280;56457;52.190;4.440;2023-02-18T01:25:22;102257.84;;;9.42;100.00
69318;BME280;56457;52.190;4.440;2023-02-18T01:26:22;102264.94;;;9.48;100.00
69318;BME280;56457;52.190;4.440;2023-02-18T01:27:22;102261.44;;;9.46;100.00
69318;BME280;56457;52.190;4.440;2023-02-18T01:28:23;102264.03;;;9.46;100.00
69318;BME280;56457;52.190;4.440;2023-02-18T01:29:24;102261.44;;;9.46;100.00
69318;BME280;56457;52.190;4.440;2023-02-18T01:30:25;102259.69;;;9.46;100.00
69318;BME280;56457;52.190;4.440;2023-02-18T01:31:25;102264.03;;;9.46;100.00
69318;BME280;56457;52.190;4.440;2023-02-18T01:32:25;102261.41;;;9.44;100.00
69318;BME280;56457;52.190;4.440;2023-02-18T01:33:26;102258.84;;;9.47;100.00
69318;BME280;56457;52.190;4.440;2023-02-18T01:34:26;102257.16;;;9.51;100.00
69318;BME280;56457;52.190;4.440;2023-02-18T01:35:26;102262.44;;;9.52;100.00
69318;BME280;56457;52.190;4.440;2023-02-18T01:36:27;102251.09;;;9.53;100.00
69318;BME280;56457;52.190;4.440;2023-02-18T01:37:27;102258.09;;;9.54;100.00
69318;BME280;56457;52.190;4.440;2023-02-18T01:38:28;102246.72;;;9.52;100.00
69318;BME280;56457;52.190;4.440;2023-02-18T01:39:28;102247.63;;;9.56;100.00
69318;BME280;56457;52.190;4.440;2023-02-18T01:40:29;102245.94;;;9.58;100.00
69318;BME280;56457;52.190;4.440;2023-02-18T01:41:29;102250.31;;;9.57;100.00
69318;BME280;56457;52.190;4.440;2023-02-18T01:42:29;102245.06;;;9.57;100.00
69318;BME280;56457;52.190;4.440;2023-02-18T01:43:30;102242.47;;;9.59;100.00
69318;BME280;56457;52.190;4.440;2023-02-18T01:44:31;102243.28;;;9.56;100.00
69318;BME280;56457;52.190;4.440;2023-02-18T01:46:32;102231.97;;;9.57;100.00
69318;BME280;56457;52.190;4.440;2023-02-18T01:47:33;102234.59;;;9.57;100.00
69318;BME280;56457;52.190;4.440;2023-02-18T01:49:56;102241.59;;;9.60;100.00
69318;BME280;56457;52.190;4.440;2023-02-18T01:52:22;102245.19;;;9.63;100.00
69318;BME280;56457;52.190;4.440;2023-02-18T01:53:26;102242.50;;;9.62;100.00
69318;BME280;56457;52.190;4.440;2023-02-18T01:55:28;102237.31;;;9.63;100.00
69318;BME280;56457;52.190;4.440;2023-02-18T01:56:34;102236.38;;;9.61;100.00
69318;BME280;56457;52.190;4.440;2023-02-18T01:57:36;102232.00;;;9.60;100.00
69318;BME280;56457;52.190;4.440;2023-02-18T01:58:37;102232.91;;;9.62;100.00
69318;BME280;56457;52.190;4.440;2023-02-18T02:00:38;102222.47;;;9.64;100.00
69318;BME280;56457;52.190;4.440;2023-02-18T02:01:39;102224.22;;;9.63;100.00
69318;BME280;56457;52.190;4.440;2023-02-18T02:02:43;102216.38;;;9.66;100.00
69318;BME280;56457;52.190;4.440;2023-02-18T02:03:44;102212.97;;;9.69;100.00
69318;BME280;56457;52.190;4.440;2023-02-18T02:04:44;102204.25;;;9.70;100.00
69318;BME280;56457;52.190;4.440;2023-02-18T02:05:45;102210.34;;;9.70;100.00
69318;BME280;56457;52.190;4.440;2023-02-18T02:06:45;102200.75;;;9.71;100.00
69318;BME280;56457;52.190;4.440;2023-02-18T02:07:46;102205.97;;;9.69;100.00
69318;BME280;56457;52.190;4.440;2023-02-18T02:08:48;102195.53;;;9.73;100.00
69318;BME280;56457;52.190;4.440;2023-02-18T02:09:49;102199.03;;;9.73;100.00
69318;BME280;56457;52.190;4.440;2023-02-18T02:12:19;102200.84;;;9.76;100.00
69318;BME280;56457;52.190;4.440;2023-02-18T02:13:33;102192.06;;;9.74;100.00
69318;BME280;56457;52.190;4.440;2023-02-18T02:14:43;102195.56;;;9.74;100.00
69318;BME280;56457;52.190;4.440;2023-02-18T02:15:55;102192.16;;;9.80;100.00
69318;BME280;56457;52.190;4.440;2023-02-18T02:25:11;102159.22;;;9.94;100.00
69318;BME280;56457;52.190;4.440;2023-02-18T02:26:30;102159.16;;;9.91;100.00
69318;BME280;56457;52.190;4.440;2023-02-18T02:27:56;102158.19;;;9.87;100.00
69318;BME280;56457;52.190;4.440;2023-02-18T02:31:36;102134.78;;;9.98;100.00
69318;BME280;56457;52.190;4.440;2023-02-18T02:37:11;102126.13;;;10.02;100.00
69318;BME280;56457;52.190;4.440;2023-02-18T02:39:17;102109.53;;;10.05;100.00
69318;BME280;56457;52.190;4.440;2023-02-18T02:40:37;102111.28;;;10.04;100.00
69318;BME280;56457;52.190;4.440;2023-02-18T02:43:32;102112.22;;;10.09;100.00
69318;BME280;56457;52.190;4.440;2023-02-18T02:44:28;102114.88;;;10.11;100.00
69318;BME280;56457;52.190;4.440;2023-02-18T02:46:36;102112.25;;;10.12;100.00
69318;BME280;56457;52.190;4.440;2023-02-18T02:47:44;102101.81;;;10.14;100.00
69318;BME280;56457;52.190;4.440;2023-02-18T02:52:25;102101.84;;;10.15;100.00
69318;BME280;56457;52.190;4.440;2023-02-18T02:53:30;102094.81;;;10.14;100.00
69318;BME280;56457;52.190;4.440;2023-02-18T02:54:31;102093.00;;;10.10;100.00
69318;BME280;56457;52.190;4.440;2023-02-18T02:55:31;102100.88;;;10.10;100.00
69318;BME280;56457;52.190;4.440;2023-02-18T02:56:31;102103.50;;;10.12;100.00
69318;BME280;56457;52.190;4.440;2023-02-18T02:58:32;102092.94;;;10.06;100.00
69318;BME280;56457;52.190;4.440;2023-02-18T02:59:32;102098.19;;;10.06;100.00
69318;BME280;56457;52.190;4.440;2023-02-18T03:04:12;102096.41;;;10.03;100.00
69318;BME280;56457;52.190;4.440;2023-02-18T03:08:35;102089.44;;;10.05;100.00
69318;BME280;56457;52.190;4.440;2023-02-18T03:12:02;102073.63;;;9.99;100.00
69318;BME280;56457;52.190;4.440;2023-02-18T03:17:41;102077.03;;;9.93;100.00
69318;BME280;56457;52.190;4.440;2023-02-18T03:19:49;102056.91;;;9.92;100.00
69318;BME280;56457;52.190;4.440;2023-02-18T03:20:53;102068.28;;;9.91;100.00
69318;BME280;56457;52.190;4.440;2023-02-18T03:22:05;102059.53;;;9.89;100.00
69318;BME280;56457;52.190;4.440;2023-02-18T03:23:08;102064.78;;;9.91;100.00
69318;BME280;56457;52.190;4.440;2023-02-18T03:24:12;102068.25;;;9.88;100.00
69318;BME280;56457;52.190;4.440;2023-02-18T03:25:13;102064.69;;;9.85;100.00
69318;BME280;56457;52.190;4.440;2023-02-18T03:26:15;102064.75;;;9.89;100.00
69318;BME280;56457;52.190;4.440;2023-02-18T03:27:22;102058.63;;;9.89;100.00
69318;BME280;56457;52.190;4.440;2023-02-18T03:28:25;102055.09;;;9.87;100.00
69318;BME280;56457;52.190;4.440;2023-02-18T03:29:27;102049.81;;;9.84;100.00
69318;BME280;56457;52.190;4.440;2023-02-18T03:30:42;102057.66;;;9.82;100.00
69318;BME280;56457;52.190;4.440;2023-02-18T03:31:44;102060.25;;;9.81;100.00
69318;BME280;56457;52.190;4.440;2023-02-18T03:32:46;102052.38;;;9.81;100.00
69318;BME280;56457;52.190;4.440;2023-02-18T03:33:49;102048.00;;;9.80;100.00
69318;BME280;56457;52.190;4.440;2023-02-18T03:34:52;102049.72;;;9.78;100.00
69318;BME280;56457;52.190;4.440;2023-02-18T03:35:54;102046.16;;;9.74;100.00
69318;BME280;56457;52.190;4.440;2023-02-18T03:36:56;102045.28;;;9.74;100.00
69318;BME280;56457;52.190;4.440;2023-02-18T03:38:07;102048.78;;;9.74;100.00
69318;BME280;56457;52.190;4.440;2023-02-18T03:39:10;102044.50;;;9.78;100.00
69318;BME280;56457;52.190;4.440;2023-02-18T03:40:12;102042.72;;;9.75;100.00
69318;BME280;56457;52.190;4.440;2023-02-18T03:41:12;102038.34;;;9.76;100.00
69318;BME280;56457;52.190;4.440;2023-02-18T03:42:14;102038.31;;;9.74;100.00
69318;BME280;56457;52.190;4.440;2023-02-18T03:43:14;102030.44;;;9.74;100.00
69318;BME280;56457;52.190;4.440;2023-02-18T03:44:15;102047.03;;;9.71;100.00
69318;BME280;56457;52.190;4.440;2023-02-18T03:45:15;102034.78;;;9.70;100.00
69318;BME280;56457;52.190;4.440;2023-02-18T03:46:15;102042.63;;;9.70;100.00
69318;BME280;56457;52.190;4.440;2023-02-18T03:47:16;102031.28;;;9.70;100.00
69318;BME280;56457;52.190;4.440;2023-02-18T03:48:16;102036.53;;;9.70;100.00
69318;BME280;56457;52.190;4.440;2023-02-18T03:49:17;102014.69;;;9.69;100.00
69318;BME280;56457;52.190;4.440;2023-02-18T03:50:17;102037.38;;;9.69;100.00
69318;BME280;56457;52.190;4.440;2023-02-18T03:51:18;102032.09;;;9.66;100.00
69318;BME280;56457;52.190;4.440;2023-02-18T03:52:18;102049.47;;;9.62;100.00
69318;BME280;56457;52.190;4.440;2023-02-18T03:53:19;102046.91;;;9.64;100.00
69318;BME280;56457;52.190;4.440;2023-02-18T03:54:19;102037.31;;;9.64;100.00
69318;BME280;56457;52.190;4.440;2023-02-18T03:55:19;102040.81;;;9.66;100.00
69318;BME280;56457;52.190;4.440;2023-02-18T03:56:20;102031.13;;;9.59;100.00
69318;BME280;56457;52.190;4.440;2023-02-18T03:57:20;102032.00;;;9.60;100.00
69318;BME280;56457;52.190;4.440;2023-02-18T03:58:20;102037.19;;;9.57;100.00
69318;BME280;56457;52.190;4.440;2023-02-18T03:59:21;102045.00;;;9.55;100.00
69318;BME280;56457;52.190;4.440;2023-02-18T04:00:21;102024.94;;;9.56;100.00
69318;BME280;56457;52.190;4.440;2023-02-18T04:01:21;102030.16;;;9.54;100.00
69318;BME280;56457;52.190;4.440;2023-02-18T04:02:22;102020.53;;;9.53;100.00
69318;BME280;56457;52.190;4.440;2023-02-18T04:03:22;102031.00;;;9.52;100.00
69318;BME280;56457;52.190;4.440;2023-02-18T04:04:22;102028.34;;;9.50;100.00
69318;BME280;56457;52.190;4.440;2023-02-18T04:05:23;102012.69;;;9.55;100.00
69318;BME280;56457;52.190;4.440;2023-02-18T04:06:23;102026.63;;;9.52;100.00
69318;BME280;56457;52.190;4.440;2023-02-18T04:07:23;102021.41;;;9.52;100.00
69318;BME280;56457;52.190;4.440;2023-02-18T04:08:24;102020.53;;;9.52;100.00
69318;BME280;56457;52.190;4.440;2023-02-18T04:09:24;102015.22;;;9.50;100.00
69318;BME280;56457;52.190;4.440;2023-02-18T04:10:25;102024.81;;;9.48;100.00
69318;BME280;56457;52.190;4.440;2023-02-18T04:11:25;102011.75;;;9.50;100.00
69318;BME280;56457;52.190;4.440;2023-02-18T04:12:25;102012.63;;;9.50;100.00
69318;BME280;56457;52.190;4.440;2023-02-18T04:13:26;102012.63;;;9.50;100.00
69318;BME280;56457;52.190;4.440;2023-02-18T04:14:26;102003.00;;;9.48;100.00
69318;BME280;56457;52.190;4.440;2023-02-18T04:15:26;102005.63;;;9.49;100.00
69318;BME280;56457;52.190;4.440;2023-02-18T04:16:27;102007.34;;;9.47;100.00
69318;BME280;56457;52.190;4.440;2023-02-18T04:17:27;102011.72;;;9.47;100.00
69318;BME280;56457;52.190;4.440;2023-02-18T04:18:27;102006.50;;;9.50;100.00
69318;BME280;56457;52.190;4.440;2023-02-18T04:19:27;102011.81;;;9.54;100.00
69318;BME280;56457;52.190;4.440;2023-02-18T04:20:28;102005.72;;;9.55;100.00
69318;BME280;56457;52.190;4.440;2023-02-18T04:21:28;102015.31;;;9.53;100.00
69318;BME280;56457;52.190;4.440;2023-02-18T04:22:28;102004.81;;;9.52;100.00
69318;BME280;56457;52.190;4.440;2023-02-18T04:23:29;101990.00;;;9.55;100.00
69318;BME280;56457;52.190;4.440;2023-02-18T04:24:29;102000.53;;;9.58;100.00
69318;BME280;56457;52.190;4.440;2023-02-18T04:25:30;101979.59;;;9.61;100.00
69318;BME280;56457;52.190;4.440;2023-02-18T04:26:30;101987.38;;;9.55;100.00
69318;BME280;56457;52.190;4.440;2023-02-18T04:27:30;101984.81;;;9.57;100.00
69318;BME280;56457;52.190;4.440;2023-02-18T04:28:30;102002.22;;;9.55;100.00
69318;BME280;56457;52.190;4.440;2023-02-18T04:29:31;101981.28;;;9.56;100.00
69318;BME280;56457;52.190;4.440;2023-02-18T04:30:31;101986.56;;;9.58;100.00
69318;BME280;56457;52.190;4.440;2023-02-18T04:31:31;101977.81;;;9.57;100.00
69318;BME280;56457;52.190;4.440;2023-02-18T04:32:32;101970.78;;;9.56;100.00
69318;BME280;56457;52.190;4.440;2023-02-18T04:33:32;101973.38;;;9.53;100.00
69318;BME280;56457;52.190;4.440;2023-02-18T04:34:32;101969.97;;;9.57;100.00
69318;BME280;56457;52.190;4.440;2023-02-18T04:35:33;101958.56;;;9.55;100.00
69318;BME280;56457;52.190;4.440;2023-02-18T04:36:33;101960.28;;;9.53;100.00
69318;BME280;56457;52.190;4.440;2023-02-18T04:37:34;101958.56;;;9.55;100.00
69318;BME280;56457;52.190;4.440;2023-02-18T04:38:34;101955.94;;;9.55;100.00
69318;BME280;56457;52.190;4.440;2023-02-18T04:39:34;101953.28;;;9.51;100.00
69318;BME280;56457;52.190;4.440;2023-02-18T04:40:34;101952.38;;;9.50;100.00
69318;BME280;56457;52.190;4.440;2023-02-18T04:41:35;101965.44;;;9.49;100.00
69318;BME280;56457;52.190;4.440;2023-02-18T04:42:35;101961.97;;;9.50;100.00
69318;BME280;56457;52.190;4.440;2023-02-18T04:43:36;101960.19;;;9.46;100.00
69318;BME280;56457;52.190;4.440;2023-02-18T04:44:36;101967.19;;;9.48;100.00
69318;BME280;56457;52.190;4.440;2023-02-18T04:45:37;101964.53;;;9.45;100.00
69318;BME280;56457;52.190;4.440;2023-02-18T04:46:37;101968.91;;;9.44;100.00
69318;BME280;56457;52.190;4.440;2023-02-18T04:47:37;101971.53;;;9.44;100.00
69318;BME280;56457;52.190;4.440;2023-02-18T04:48:38;101967.13;;;9.43;100.00
69318;BME280;56457;52.190;4.440;2023-02-18T04:49:38;101955.81;;;9.46;100.00
69318;BME280;56457;52.190;4.440;2023-02-18T04:50:39;101969.81;;;9.48;100.00
69318;BME280;56457;52.190;4.440;2023-02-18T04:51:39;101967.19;;;9.47;100.00
69318;BME280;56457;52.190;4.440;2023-02-18T04:52:39;101967.25;;;9.51;100.00
69318;BME280;56457;52.190;4.440;2023-02-18T04:53:40;101963.72;;;9.49;100.00
69318;BME280;56457;52.190;4.440;2023-02-18T04:54:40;101956.78;;;9.51;100.00
69318;BME280;56457;52.190;4.440;2023-02-18T04:55:40;101962.84;;;9.49;100.00
69318;BME280;56457;52.190;4.440;2023-02-18T04:56:41;101960.22;;;9.50;100.00
69318;BME280;56457;52.190;4.440;2023-02-18T04:57:41;101968.09;;;9.50;100.00
69318;BME280;56457;52.190;4.440;2023-02-18T04:58:41;101981.19;;;9.50;100.00
69318;BME280;56457;52.190;4.440;2023-02-18T04:59:41;101969.88;;;9.51;100.00
69318;BME280;56457;52.190;4.440;2023-02-18T05:00:42;101962.84;;;9.49;100.00
69318;BME280;56457;52.190;4.440;2023-02-18T05:01:42;101956.78;;;9.51;100.00
69318;BME280;56457;52.190;4.440;2023-02-18T05:02:43;101961.09;;;9.49;100.00
69318;BME280;56457;52.190;4.440;2023-02-18T05:03:43;101968.06;;;9.47;100.00
69318;BME280;56457;52.190;4.440;2023-02-18T05:04:45;101966.38;;;9.51;100.00
69318;BME280;56457;52.190;4.440;2023-02-18T05:05:45;101956.78;;;9.53;100.00
69318;BME280;56457;52.190;4.440;2023-02-18T05:06:45;101972.50;;;9.51;100.00
69318;BME280;56457;52.190;4.440;2023-02-18T05:07:46;101954.97;;;9.50;100.00
69318;BME280;56457;52.190;4.440;2023-02-18T05:08:46;101946.28;;;9.51;100.00
69318;BME280;56457;52.190;4.440;2023-02-18T05:09:46;101948.91;;;9.51;100.00
69318;BME280;56457;52.190;4.440;2023-02-18T05:10:47;101950.59;;;9.49;100.00
69318;BME280;56457;52.190;4.440;2023-02-18T05:11:47;101949.78;;;9.52;100.00
69318;BME280;56457;52.190;4.440;2023-02-18T05:12:48;101939.31;;;9.52;100.00
69318;BME280;56457;52.190;4.440;2023-02-18T05:13:48;101943.69;;;9.54;100.00
69318;BME280;56457;52.190;4.440;2023-02-18T05:14:48;101953.28;;;9.51;100.00
69318;BME280;56457;52.190;4.440;2023-02-18T05:15:49;101942.78;;;9.51;100.00
69318;BME280;56457;52.190;4.440;2023-02-18T05:16:49;101931.38;;;9.47;100.00
69318;BME280;56457;52.190;4.440;2023-02-18T05:17:50;101947.09;;;9.47;100.00
69318;BME280;56457;52.190;4.440;2023-02-18T05:18:50;101936.59;;;9.46;100.00
69318;BME280;56457;52.190;4.440;2023-02-18T05:19:50;101928.75;;;9.46;100.00
69318;BME280;56457;52.190;4.440;2023-02-18T05:20:51;101936.66;;;9.50;100.00
69318;BME280;56457;52.190;4.440;2023-02-18T05:21:51;101932.34;;;9.52;100.00
69318;BME280;56457;52.190;4.440;2023-02-18T05:22:51;101930.59;;;9.54;100.00
69318;BME280;56457;52.190;4.440;2023-02-18T05:23:51;101928.88;;;9.56;100.00
69318;BME280;56457;52.190;4.440;2023-02-18T05:24:52;101930.66;;;9.57;100.00
69318;BME280;56457;52.190;4.440;2023-02-18T05:25:53;101921.00;;;9.56;100.00
69318;BME280;56457;52.190;4.440;2023-02-18T05:26:53;101907.09;;;9.57;100.00
69318;BME280;56457;52.190;4.440;2023-02-18T05:27:54;101926.31;;;9.59;100.00
69318;BME280;56457;52.190;4.440;2023-02-18T05:28:54;101920.22;;;9.60;100.00
69318;BME280;56457;52.190;4.440;2023-02-18T05:29:54;101921.09;;;9.62;100.00
69318;BME280;56457;52.190;4.440;2023-02-18T05:30:55;101924.56;;;9.60;100.00
69318;BME280;56457;52.190;4.440;2023-02-18T05:31:55;101925.44;;;9.60;100.00
69318;BME280;56457;52.190;4.440;2023-02-18T05:32:55;101918.44;;;9.59;100.00
69318;BME280;56457;52.190;4.440;2023-02-18T05:33:56;101914.97;;;9.60;100.00
69318;BME280;56457;52.190;4.440;2023-02-18T05:34:56;101914.06;;;9.58;100.00
69318;BME280;56457;52.190;4.440;2023-02-18T05:35:56;101921.97;;;9.61;100.00
69318;BME280;56457;52.190;4.440;2023-02-18T05:36:56;101914.97;;;9.60;100.00
69318;BME280;56457;52.190;4.440;2023-02-18T05:37:57;101921.13;;;9.64;100.00
69318;BME280;56457;52.190;4.440;2023-02-18T05:38:57;101918.47;;;9.62;100.00
69318;BME280;56457;52.190;4.440;2023-02-18T05:39:57;101924.63;;;9.64;100.00
69318;BME280;56457;52.190;4.440;2023-02-18T05:40:58;101920.28;;;9.66;100.00
69318;BME280;56457;52.190;4.440;2023-02-18T05:41:58;101921.16;;;9.67;100.00
69318;BME280;56457;52.190;4.440;2023-02-18T05:42:58;101912.41;;;9.63;100.00
69318;BME280;56457;52.190;4.440;2023-02-18T05:43:58;101921.22;;;9.71;100.00
69318;BME280;56457;52.190;4.440;2023-02-18T05:45:17;101909.78;;;9.63;100.00
69318;BME280;56457;52.190;4.440;2023-02-18T05:46:18;101902.81;;;9.65;100.00
69318;BME280;56457;52.190;4.440;2023-02-18T05:47:18;101903.69;;;9.66;100.00
69318;BME280;56457;52.190;4.440;2023-02-18T05:48:18;101904.56;;;9.66;100.00
69318;BME280;56457;52.190;4.440;2023-02-18T05:49:18;101901.97;;;9.68;100.00
69318;BME280;56457;52.190;4.440;2023-02-18T05:50:19;101917.72;;;9.69;100.00
69318;BME280;56457;52.190;4.440;2023-02-18T05:51:19;101912.44;;;9.66;100.00
69318;BME280;56457;52.190;4.440;2023-02-18T05:52:19;101909.78;;;9.63;100.00
69318;BME280;56457;52.190;4.440;2023-02-18T05:53:21;101908.00;;;9.62;100.00
69318;BME280;56457;52.190;4.440;2023-02-18T05:54:21;101906.28;;;9.63;100.00
69318;BME280;56457;52.190;4.440;2023-02-18T05:55:22;101891.44;;;9.63;100.00
69318;BME280;56457;52.190;4.440;2023-02-18T05:56:23;101906.28;;;9.63;100.00
69318;BME280;56457;52.190;4.440;2023-02-18T05:57:23;101908.91;;;9.63;100.00
69318;BME280;56457;52.190;4.440;2023-02-18T05:58:24;101908.84;;;9.60;100.00
69318;BME280;56457;52.190;4.440;2023-02-18T05:59:24;101911.53;;;9.64;100.00
69318;BME280;56457;52.190;4.440;2023-02-18T06:00:24;101918.53;;;9.64;100.00
69318;BME280;56457;52.190;4.440;2023-02-18T06:01:25;101910.66;;;9.64;100.00
69318;BME280;56457;52.190;4.440;2023-02-18T06:02:25;101917.66;;;9.63;100.00
69318;BME280;56457;52.190;4.440;2023-02-18T06:03:25;101916.78;;;9.64;100.00
69318;BME280;56457;52.190;4.440;2023-02-18T06:04:26;101914.16;;;9.63;100.00
69318;BME280;56457;52.190;4.440;2023-02-18T06:05:26;101908.03;;;9.64;100.00
69318;BME280;56457;52.190;4.440;2023-02-18T06:06:26;101916.72;;;9.60;100.00